createdAt,value
2022-11-29T00:00:03.257Z,8.19
2022-11-29T00:02:45.497Z,8.20
2022-11-29T00:05:15.140Z,8.21
2022-11-29T00:07:44.820Z,8.22
2022-11-29T00:10:14.751Z,8.24
2022-11-29T00:12:44.380Z,8.24
2022-11-29T00:15:14.325Z,8.24
2022-11-29T00:17:46.480Z,8.24
2022-11-29T00:20:16.382Z,8.23
2022-11-29T00:22:45.943Z,8.22
2022-11-29T00:25:15.483Z,8.21
2022-11-29T00:27:45.020Z,8.21
2022-11-29T00:30:15.731Z,8.20
2022-11-29T00:32:48.193Z,8.18
2022-11-29T00:35:17.975Z,8.18
2022-11-29T00:37:47.535Z,8.16
2022-11-29T00:40:17.167Z,8.16
2022-11-29T00:42:46.723Z,8.14
2022-11-29T00:45:16.280Z,8.14
2022-11-29T00:47:48.444Z,8.14
2022-11-29T00:50:18.069Z,8.13
2022-11-29T00:52:47.685Z,8.13
2022-11-29T00:55:17.766Z,8.13
2022-11-29T00:57:47.374Z,8.13
2022-11-29T01:00:18.372Z,8.14
2022-11-29T01:02:50.766Z,8.15
2022-11-29T01:05:20.585Z,8.14
2022-11-29T01:07:50.245Z,8.13
2022-11-29T01:10:19.906Z,8.12
2022-11-29T01:12:49.456Z,8.11
2022-11-29T01:15:19.203Z,8.12
2022-11-29T01:17:51.524Z,8.12
2022-11-29T01:20:21.133Z,8.12
2022-11-29T01:22:51.040Z,8.13
2022-11-29T01:25:21.367Z,8.13
2022-11-29T01:27:50.935Z,8.14
2022-11-29T01:30:20.667Z,8.14
2022-11-29T01:32:52.815Z,8.13
2022-11-29T01:35:22.356Z,8.12
2022-11-29T01:37:51.901Z,8.12
2022-11-29T01:40:21.551Z,8.12
2022-11-29T01:42:51.256Z,8.12
2022-11-29T01:45:27.423Z,8.11
2022-11-29T01:48:00.659Z,8.10
2022-11-29T01:50:30.249Z,8.10
2022-11-29T01:53:00.619Z,8.11
2022-11-29T01:55:30.487Z,8.12
2022-11-29T01:58:01.391Z,8.12
2022-11-29T02:00:30.964Z,8.12
2022-11-29T02:03:07.053Z,8.11
2022-11-29T02:05:36.672Z,8.11
2022-11-29T02:08:07.031Z,8.11
2022-11-29T02:10:46.310Z,8.14
2022-11-29T02:13:24.838Z,8.15
2022-11-29T02:15:59.235Z,8.17
2022-11-29T02:18:45.706Z,8.17
2022-11-29T02:21:33.679Z,8.17
2022-11-29T02:24:17.077Z,8.18
2022-11-29T02:27:01.839Z,8.18
2022-11-29T02:29:40.573Z,8.17
2022-11-29T02:32:36.902Z,8.18
2022-11-29T02:35:18.361Z,8.17
2022-11-29T02:38:09.274Z,8.18
2022-11-29T02:40:52.384Z,8.19
2022-11-29T02:43:39.567Z,8.20
2022-11-29T02:46:24.646Z,8.21
2022-11-29T02:49:03.638Z,8.21
2022-11-29T02:51:41.305Z,8.21
2022-11-29T02:54:17.041Z,8.22
2022-11-29T02:56:49.492Z,8.23
2022-11-29T02:59:27.792Z,8.23
2022-11-29T03:02:06.242Z,8.24
2022-11-29T03:04:44.198Z,8.24
2022-11-29T03:07:18.236Z,8.27
2022-11-29T03:09:50.519Z,8.28
2022-11-29T03:12:23.715Z,8.29
2022-11-29T03:14:59.195Z,8.28
2022-11-29T03:17:34.959Z,8.28
2022-11-29T03:20:15.744Z,8.28
2022-11-29T03:22:50.564Z,8.27
2022-11-29T03:25:25.586Z,8.28
2022-11-29T03:27:59.619Z,8.28
2022-11-29T03:30:29.217Z,8.29
2022-11-29T03:33:05.535Z,8.29
2022-11-29T03:35:42.709Z,8.30
2022-11-29T03:38:18.017Z,8.32
2022-11-29T03:40:52.858Z,8.34
2022-11-29T03:43:26.505Z,8.35
2022-11-29T03:46:00.516Z,8.36
2022-11-29T03:48:34.254Z,8.36
2022-11-29T03:51:10.311Z,8.37
2022-11-29T03:53:44.859Z,8.37
2022-11-29T03:56:28.868Z,8.36
2022-11-29T03:59:06.219Z,8.35
2022-11-29T04:02:20.110Z,8.35
2022-11-29T04:05:12.078Z,8.35
2022-11-29T04:07:57.038Z,8.36
2022-11-29T04:10:43.329Z,8.37
2022-11-29T04:13:34.271Z,8.38
2022-11-29T04:16:36.307Z,8.39
2022-11-29T04:19:18.603Z,8.38
2022-11-29T04:22:11.841Z,8.38
2022-11-29T04:25:12.109Z,8.41
2022-11-29T04:28:04.035Z,8.42
2022-11-29T04:30:38.023Z,8.43
2022-11-29T04:33:33.050Z,8.45
2022-11-29T04:36:29.601Z,8.45
2022-11-29T04:39:16.688Z,8.45
2022-11-29T04:42:18.879Z,8.47
2022-11-29T04:44:59.832Z,8.48
2022-11-29T04:47:44.990Z,8.48
2022-11-29T04:50:33.667Z,8.47
2022-11-29T04:53:30.871Z,8.45
2022-11-29T04:56:08.444Z,8.43
2022-11-29T04:58:44.239Z,8.42
2022-11-29T05:01:20.594Z,8.42
2022-11-29T05:03:57.054Z,8.44
2022-11-29T05:06:32.417Z,8.42
2022-11-29T05:09:09.659Z,8.42
2022-11-29T05:11:47.522Z,8.41
2022-11-29T05:14:30.083Z,8.41
2022-11-29T05:17:07.015Z,8.39
2022-11-29T05:19:49.640Z,8.39
2022-11-29T05:22:34.784Z,8.37
2022-11-29T05:25:18.979Z,8.37
2022-11-29T05:27:50.881Z,8.35
2022-11-29T05:30:25.519Z,8.36
2022-11-29T05:33:00.260Z,8.36
2022-11-29T05:35:42.988Z,8.37
2022-11-29T05:38:26.753Z,8.38
2022-11-29T05:41:06.050Z,8.39
2022-11-29T05:43:48.421Z,8.41
2022-11-29T05:46:24.993Z,8.41
2022-11-29T05:49:01.789Z,8.42
2022-11-29T05:51:40.763Z,8.44
2022-11-29T05:54:17.421Z,8.46
2022-11-29T05:56:52.200Z,8.48
2022-11-29T05:59:23.966Z,8.46
2022-11-29T06:02:00.817Z,8.46
2022-11-29T06:04:36.748Z,8.47
2022-11-29T06:07:11.625Z,8.51
2022-11-29T06:09:44.260Z,8.54
2022-11-29T06:12:21.023Z,8.57
2022-11-29T06:15:31.024Z,8.61
2022-11-29T06:18:17.262Z,8.63
2022-11-29T06:20:55.631Z,8.65
2022-11-29T06:23:57.863Z,8.68
2022-11-29T06:26:47.592Z,8.71
2022-11-29T06:29:26.560Z,8.75
2022-11-29T06:32:00.092Z,8.80
2022-11-29T06:34:36.529Z,8.83
2022-11-29T06:37:08.568Z,8.86
2022-11-29T06:39:38.875Z,8.87
2022-11-29T06:42:08.531Z,8.89
2022-11-29T06:44:38.706Z,8.91
2022-11-29T06:47:10.431Z,8.92
2022-11-29T06:49:49.264Z,8.94
2022-11-29T06:52:27.466Z,8.94
2022-11-29T06:55:13.186Z,8.93
2022-11-29T06:57:51.704Z,8.93
2022-11-29T07:00:25.678Z,8.93
2022-11-29T07:03:28.936Z,8.93
2022-11-29T07:06:01.676Z,8.88
2022-11-29T07:08:31.912Z,8.83
2022-11-29T07:11:02.653Z,8.79
2022-11-29T07:13:32.907Z,8.77
2022-11-29T07:16:07.962Z,8.78
2022-11-29T07:18:45.534Z,8.78
2022-11-29T07:21:24.348Z,8.79
2022-11-29T07:23:58.759Z,8.76
2022-11-29T07:26:34.581Z,8.74
2022-11-29T07:29:14.131Z,8.73
2022-11-29T07:31:51.387Z,8.75
2022-11-29T07:34:26.312Z,8.77
2022-11-29T07:37:06.493Z,8.78
2022-11-29T07:39:44.893Z,8.80
2022-11-29T07:42:19.147Z,8.80
2022-11-29T07:44:57.788Z,8.83
2022-11-29T07:47:31.263Z,8.86
2022-11-29T07:50:03.976Z,8.91
2022-11-29T07:52:36.630Z,8.95
2022-11-29T07:55:06.737Z,9.00
2022-11-29T07:57:36.998Z,9.03
2022-11-29T08:00:07.925Z,9.05
2022-11-29T08:02:41.478Z,9.05
2022-11-29T08:05:12.318Z,9.06
2022-11-29T08:07:44.601Z,9.07
2022-11-29T08:10:16.303Z,9.06
2022-11-29T08:12:46.820Z,9.07
2022-11-29T08:15:16.824Z,9.08
2022-11-29T08:17:46.474Z,9.09
2022-11-29T08:20:17.445Z,9.10
2022-11-29T08:22:56.866Z,9.12
2022-11-29T08:25:26.557Z,9.17
2022-11-29T08:27:57.263Z,9.19
2022-11-29T08:30:26.927Z,9.23
2022-11-29T08:32:56.473Z,9.25
2022-11-29T08:35:26.524Z,9.28
2022-11-29T08:37:58.718Z,9.30
2022-11-29T08:40:28.296Z,9.32
2022-11-29T08:43:00.134Z,9.36
2022-11-29T08:45:29.821Z,9.40
2022-11-29T08:47:59.404Z,9.44
2022-11-29T08:50:28.949Z,9.45
2022-11-29T08:53:13.648Z,9.48
2022-11-29T08:55:46.560Z,9.53
2022-11-29T08:58:18.174Z,9.60
2022-11-29T09:00:48.627Z,9.65
2022-11-29T09:03:30.688Z,9.71
2022-11-29T09:06:00.386Z,9.75
2022-11-29T09:08:32.515Z,9.80
2022-11-29T09:11:02.119Z,9.84
2022-11-29T09:13:31.660Z,9.86
2022-11-29T09:16:01.284Z,9.87
2022-11-29T09:18:31.059Z,9.89
2022-11-29T09:21:00.855Z,9.92
2022-11-29T09:23:33.020Z,9.95
2022-11-29T09:26:02.612Z,9.98
2022-11-29T09:28:33.351Z,10.02
2022-11-29T09:31:08.015Z,10.09
2022-11-29T09:33:37.674Z,10.19
2022-11-29T09:36:08.446Z,10.25
2022-11-29T09:38:41.429Z,10.31
2022-11-29T09:41:34.274Z,10.33
2022-11-29T09:44:08.838Z,10.32
2022-11-29T09:46:43.863Z,10.31
2022-11-29T09:49:33.499Z,10.25
2022-11-29T09:52:07.571Z,10.17
2022-11-29T09:54:40.976Z,10.10
2022-11-29T09:57:11.234Z,10.07
2022-11-29T09:59:44.888Z,10.07
2022-11-29T10:02:21.720Z,10.09
2022-11-29T10:04:55.179Z,10.10
2022-11-29T10:07:27.628Z,10.08
2022-11-29T10:10:04.402Z,10.03
2022-11-29T10:12:37.799Z,9.99
2022-11-29T10:15:13.936Z,9.97
2022-11-29T10:17:48.054Z,9.96
2022-11-29T10:20:18.326Z,9.95
2022-11-29T10:22:53.595Z,9.94
2022-11-29T10:25:29.330Z,9.92
2022-11-29T10:27:58.994Z,9.87
2022-11-29T10:30:28.573Z,9.82
2022-11-29T10:33:00.188Z,9.77
2022-11-29T10:35:30.590Z,9.74
2022-11-29T10:40:57.563Z,9.75
2022-11-29T10:43:27.250Z,9.76
2022-11-29T10:45:58.923Z,9.79
2022-11-29T10:48:31.784Z,9.80
2022-11-29T10:51:01.706Z,9.81
2022-11-29T10:53:35.886Z,9.85
2022-11-29T10:56:10.396Z,9.88
2022-11-29T10:58:57.356Z,9.89
2022-11-29T11:01:29.147Z,9.90
2022-11-29T11:04:03.240Z,9.93
2022-11-29T11:06:45.993Z,9.98
2022-11-29T11:09:21.634Z,10.04
2022-11-29T11:11:58.786Z,10.14
2022-11-29T11:14:30.383Z,10.18
2022-11-29T11:17:17.485Z,10.16
2022-11-29T11:19:57.640Z,10.13
2022-11-29T11:22:27.956Z,10.13
2022-11-29T11:25:03.249Z,10.13
2022-11-29T11:27:38.574Z,10.14
2022-11-29T11:30:10.608Z,10.13
2022-11-29T11:32:40.210Z,10.13
2022-11-29T11:35:24.802Z,10.12
2022-11-29T11:37:59.666Z,10.12
2022-11-29T11:40:31.250Z,10.13
2022-11-29T11:43:04.990Z,10.15
2022-11-29T11:45:38.614Z,10.16
2022-11-29T11:48:15.039Z,10.20
2022-11-29T11:50:47.299Z,10.21
2022-11-29T11:53:25.358Z,10.23
2022-11-29T11:56:01.378Z,10.23
2022-11-29T11:58:35.648Z,10.24
2022-11-29T12:01:19.161Z,10.26
2022-11-29T12:03:53.668Z,10.25
2022-11-29T12:06:39.645Z,10.25
2022-11-29T12:09:18.743Z,10.22
2022-11-29T12:11:54.279Z,10.18
2022-11-29T12:14:34.104Z,10.15
2022-11-29T12:17:14.285Z,10.14
2022-11-29T12:19:55.572Z,10.13
2022-11-29T12:22:28.097Z,10.12
2022-11-29T12:25:01.058Z,10.12
2022-11-29T12:27:30.772Z,10.12
2022-11-29T12:30:03.175Z,10.12
2022-11-29T12:32:49.756Z,10.12
2022-11-29T12:35:42.966Z,10.10
2022-11-29T12:38:23.532Z,10.11
2022-11-29T12:40:57.683Z,10.10
2022-11-29T12:43:27.951Z,10.09
2022-11-29T12:46:06.899Z,10.07
2022-11-29T12:48:40.999Z,10.07
2022-11-29T12:51:16.867Z,10.06
2022-11-29T12:53:55.232Z,10.02
2022-11-29T12:56:29.593Z,9.98
2022-11-29T12:59:07.204Z,9.94
2022-11-29T13:01:53.845Z,9.91
2022-11-29T13:04:26.803Z,9.92
2022-11-29T13:07:00.294Z,9.90
2022-11-29T13:09:49.935Z,9.91
2022-11-29T13:12:23.413Z,9.90
2022-11-29T13:14:58.409Z,9.88
2022-11-29T13:17:40.369Z,9.85
2022-11-29T13:20:30.590Z,9.81
2022-11-29T13:23:07.221Z,9.79
2022-11-29T13:25:39.773Z,9.76
2022-11-29T13:28:14.364Z,9.72
2022-11-29T13:30:44.089Z,9.68
2022-11-29T13:33:23.273Z,9.64
2022-11-29T13:35:59.553Z,9.63
2022-11-29T13:38:34.443Z,9.65
2022-11-29T13:41:10.139Z,9.69
2022-11-29T13:43:42.484Z,9.76
2022-11-29T13:46:19.740Z,9.83
2022-11-29T13:48:54.281Z,9.91
2022-11-29T13:51:26.779Z,9.95
2022-11-29T13:53:57.116Z,9.98
2022-11-29T13:56:32.744Z,10.00
2022-11-29T13:59:03.619Z,10.00
2022-11-29T14:01:46.520Z,10.00
2022-11-29T14:04:27.498Z,9.99
2022-11-29T14:07:08.846Z,9.95
2022-11-29T14:09:44.925Z,9.89
2022-11-29T14:12:28.185Z,9.85
2022-11-29T14:15:01.479Z,9.83
2022-11-29T14:17:37.275Z,9.81
2022-11-29T14:20:54.517Z,9.80
2022-11-29T14:23:41.011Z,9.77
2022-11-29T14:26:28.522Z,9.76
2022-11-29T14:28:58.658Z,9.75
2022-11-29T14:31:53.387Z,9.73
2022-11-29T14:34:36.018Z,9.73
2022-11-29T14:37:11.682Z,9.71
2022-11-29T14:39:49.548Z,9.70
2022-11-29T14:42:21.161Z,9.69
2022-11-29T14:44:53.715Z,9.67
2022-11-29T14:47:29.946Z,9.63
2022-11-29T14:50:00.893Z,9.62
2022-11-29T14:52:33.006Z,9.59
2022-11-29T14:55:08.009Z,9.58
2022-11-29T14:58:16.220Z,9.57
2022-11-29T15:01:02.703Z,9.55
2022-11-29T15:03:37.546Z,9.51
2022-11-29T15:06:17.908Z,9.51
2022-11-29T15:08:52.889Z,9.50
2022-11-29T15:11:34.707Z,9.47
2022-11-29T15:14:08.317Z,9.45
2022-11-29T15:16:57.760Z,9.44
2022-11-29T15:19:49.166Z,9.43
2022-11-29T15:22:20.672Z,9.41
2022-11-29T15:24:55.287Z,9.39
2022-11-29T15:27:27.586Z,9.36
2022-11-29T15:29:58.939Z,9.32
2022-11-29T15:32:31.341Z,9.29
2022-11-29T15:35:01.532Z,9.23
2022-11-29T15:37:44.547Z,9.20
2022-11-29T15:40:17.198Z,9.14
2022-11-29T15:42:51.425Z,9.08
2022-11-29T15:45:29.869Z,9.03
2022-11-29T15:48:15.110Z,9.01
2022-11-29T15:50:48.661Z,8.99
2022-11-29T15:53:22.714Z,8.95
2022-11-29T15:55:52.254Z,8.87
2022-11-29T15:58:24.497Z,8.79
2022-11-29T16:00:54.960Z,8.76
2022-11-29T16:03:29.077Z,8.75
2022-11-29T16:06:04.108Z,8.74
2022-11-29T16:08:37.400Z,8.70
2022-11-29T16:11:08.605Z,8.68
2022-11-29T16:13:43.154Z,8.66
2022-11-29T16:16:20.496Z,8.66
2022-11-29T16:18:54.766Z,8.64
2022-11-29T16:21:26.090Z,8.64
2022-11-29T16:23:56.304Z,8.62
2022-11-29T16:26:27.140Z,8.60
2022-11-29T16:29:00.104Z,8.57
2022-11-29T16:31:34.958Z,8.54
2022-11-29T16:34:10.332Z,8.49
2022-11-29T16:36:40.091Z,8.44
2022-11-29T16:39:10.991Z,8.37
2022-11-29T16:41:41.615Z,8.30
2022-11-29T16:44:45.513Z,8.22
2022-11-29T16:47:19.102Z,8.14
2022-11-29T16:49:49.132Z,8.09
2022-11-29T16:52:27.093Z,8.08
2022-11-29T16:54:56.773Z,8.08
2022-11-29T16:57:26.640Z,8.10
2022-11-29T16:59:58.920Z,8.11
2022-11-29T17:02:31.725Z,8.12
2022-11-29T17:05:01.387Z,8.11
2022-11-29T17:07:32.728Z,8.12
2022-11-29T17:10:02.771Z,8.12
2022-11-29T17:12:32.641Z,8.13
2022-11-29T17:15:04.863Z,8.13
2022-11-29T17:17:34.497Z,8.12
2022-11-29T17:20:04.110Z,8.13
2022-11-29T17:22:33.683Z,8.12
2022-11-29T17:25:03.339Z,8.10
2022-11-29T17:27:33.172Z,8.10
2022-11-29T17:30:06.034Z,8.08
2022-11-29T17:32:36.605Z,8.02
2022-11-29T17:35:06.444Z,7.93
2022-11-29T17:37:36.025Z,7.84
2022-11-29T17:40:05.617Z,7.77
2022-11-29T17:42:35.276Z,7.70
2022-11-29T17:45:07.958Z,7.65
2022-11-29T17:47:37.551Z,7.60
2022-11-29T17:50:08.461Z,7.58
2022-11-29T17:52:39.227Z,7.54
2022-11-29T17:55:10.297Z,7.50
2022-11-29T17:57:39.957Z,7.43
2022-11-29T18:00:15.418Z,7.35
2022-11-29T18:02:45.059Z,7.23
2022-11-29T18:05:14.689Z,7.10
2022-11-29T18:07:58.055Z,6.95
2022-11-29T18:10:28.540Z,6.81
2022-11-29T18:12:58.156Z,6.70
2022-11-29T18:15:30.352Z,6.62
2022-11-29T18:17:59.897Z,6.52
2022-11-29T18:20:29.503Z,6.42
2022-11-29T18:23:01.427Z,6.35
2022-11-29T18:25:39.553Z,6.31
2022-11-29T18:28:11.340Z,6.26
2022-11-29T18:30:43.562Z,6.26
2022-11-29T18:33:13.156Z,6.26
2022-11-29T18:35:42.791Z,6.32
2022-11-29T18:38:15.720Z,6.36
2022-11-29T18:40:48.370Z,6.42
2022-11-29T18:43:19.478Z,6.49
2022-11-29T18:45:51.793Z,6.55
2022-11-29T18:48:21.384Z,6.63
2022-11-29T18:50:51.025Z,6.70
2022-11-29T18:53:20.625Z,6.78
2022-11-29T18:55:50.223Z,6.84
2022-11-29T18:58:20.069Z,6.91
2022-11-29T19:00:52.348Z,6.95
2022-11-29T19:03:21.994Z,6.99
2022-11-29T19:05:55.090Z,7.02
2022-11-29T19:08:25.563Z,7.05
2022-11-29T19:10:55.296Z,7.10
2022-11-29T19:13:24.956Z,7.13
2022-11-29T19:15:58.215Z,7.17
2022-11-29T19:18:27.878Z,7.19
2022-11-29T19:21:06.353Z,7.21
2022-11-29T19:23:36.031Z,7.21
2022-11-29T19:26:06.519Z,7.23
2022-11-29T19:28:38.279Z,7.25
2022-11-29T19:31:11.110Z,7.26
2022-11-29T19:33:44.863Z,7.29
2022-11-29T19:36:15.907Z,7.32
2022-11-29T19:38:50.244Z,7.35
2022-11-29T19:41:24.809Z,7.39
2022-11-29T19:43:54.558Z,7.43
2022-11-29T19:46:28.383Z,7.48
2022-11-29T19:48:59.517Z,7.51
2022-11-29T19:51:30.252Z,7.55
2022-11-29T19:54:01.590Z,7.55
2022-11-29T19:56:32.193Z,7.56
2022-11-29T19:59:02.743Z,7.57
2022-11-29T20:01:40.880Z,7.57
2022-11-29T20:04:11.780Z,7.56
2022-11-29T20:06:41.554Z,7.56
2022-11-29T20:09:11.300Z,7.57
2022-11-29T20:11:41.092Z,7.59
2022-11-29T20:14:11.542Z,7.61
2022-11-29T20:16:44.493Z,7.64
2022-11-29T20:19:16.228Z,7.63
2022-11-29T20:21:47.796Z,7.65
2022-11-29T20:24:19.388Z,7.66
2022-11-29T20:26:50.659Z,7.66
2022-11-29T20:29:21.868Z,7.66
2022-11-29T20:31:54.088Z,7.66
2022-11-29T20:34:23.940Z,7.67
2022-11-29T20:37:10.576Z,7.66
2022-11-29T20:39:46.568Z,7.66
2022-11-29T20:42:48.831Z,7.67
2022-11-29T20:45:19.598Z,7.65
2022-11-29T20:47:56.204Z,7.65
2022-11-29T20:50:28.679Z,7.63
2022-11-29T20:53:09.181Z,7.64
2022-11-29T20:55:44.891Z,7.63
2022-11-29T20:58:16.157Z,7.62
2022-11-29T21:00:45.942Z,7.61
2022-11-29T21:03:19.361Z,7.60
2022-11-29T21:05:49.451Z,7.59
2022-11-29T21:08:21.932Z,7.58
2022-11-29T21:10:53.266Z,7.59
2022-11-29T21:13:24.257Z,7.59
2022-11-29T21:15:54.907Z,7.58
2022-11-29T21:18:29.951Z,7.59
2022-11-29T21:21:06.425Z,7.57
2022-11-29T21:23:45.504Z,7.57
2022-11-29T21:26:18.719Z,7.56
2022-11-29T21:29:00.817Z,7.55
2022-11-29T21:31:31.113Z,7.56
2022-11-29T21:34:03.964Z,7.55
2022-11-29T21:36:33.859Z,7.56
2022-11-29T21:39:05.263Z,7.54
2022-11-29T21:41:35.283Z,7.56
2022-11-29T21:44:07.070Z,7.56
2022-11-29T21:46:37.601Z,7.55
2022-11-29T21:49:10.413Z,7.56
2022-11-29T21:51:40.021Z,7.56
2022-11-29T21:54:09.650Z,7.55
2022-11-29T21:56:39.232Z,7.56
2022-11-29T21:59:08.846Z,7.54
2022-11-29T22:01:38.674Z,7.53
2022-11-29T22:04:11.064Z,7.51
2022-11-29T22:06:40.963Z,7.50
2022-11-29T22:09:10.690Z,7.48
2022-11-29T22:11:40.274Z,7.45
2022-11-29T22:14:18.369Z,7.43
2022-11-29T22:16:49.971Z,7.41
2022-11-29T22:19:23.371Z,7.41
2022-11-29T22:21:54.179Z,7.36
2022-11-29T22:24:26.312Z,7.35
2022-11-29T22:26:56.255Z,7.34
2022-11-29T22:29:26.711Z,7.34
2022-11-29T22:31:59.293Z,7.32
2022-11-29T22:34:31.611Z,7.30
2022-11-29T22:37:01.183Z,7.29
2022-11-29T22:39:30.753Z,7.26
2022-11-29T22:42:00.313Z,7.26
2022-11-29T22:44:30.348Z,7.25
2022-11-29T22:47:00.029Z,7.26
2022-11-29T22:49:33.343Z,7.29
2022-11-29T22:52:03.052Z,7.29
2022-11-29T22:54:32.711Z,7.31
2022-11-29T22:57:02.333Z,7.32
2022-11-29T22:59:31.957Z,7.31
2022-11-29T23:02:01.549Z,7.32
2022-11-29T23:04:33.760Z,7.32
2022-11-29T23:07:04.507Z,7.32
2022-11-29T23:09:34.123Z,7.32
2022-11-29T23:12:03.757Z,7.32
2022-11-29T23:14:33.452Z,7.32
2022-11-29T23:17:03.044Z,7.31
2022-11-29T23:19:35.229Z,7.30
2022-11-29T23:22:04.841Z,7.31
2022-11-29T23:24:34.407Z,7.31
2022-11-29T23:27:04.941Z,7.31
2022-11-29T23:29:34.543Z,7.31
2022-11-29T23:32:04.152Z,7.32
2022-11-29T23:34:36.362Z,7.34
2022-11-29T23:37:05.953Z,7.35
2022-11-29T23:39:35.575Z,7.37
2022-11-29T23:42:05.373Z,7.37
2022-11-29T23:44:35.080Z,7.38
2022-11-29T23:47:04.692Z,7.39
2022-11-29T23:49:39.858Z,7.40
2022-11-29T23:52:09.482Z,7.37
2022-11-29T23:54:39.086Z,7.38
2022-11-29T23:57:08.658Z,7.36
2022-11-29T23:59:38.455Z,7.34
